createdAt,value
2019-03-10T00:00:11.996Z,96944.30
2019-03-10T00:03:20.502Z,96951.41
2019-03-10T00:06:27.457Z,96954.22
2019-03-10T00:09:36.580Z,96941.16
2019-03-10T00:12:43.442Z,96950.41
2019-03-10T00:15:50.225Z,96955.91
2019-03-10T00:18:57.196Z,96958.23
2019-03-10T00:22:04.347Z,96965.70
2019-03-10T00:25:11.708Z,96956.88
2019-03-10T00:28:19.232Z,96960.66
2019-03-10T00:31:26.112Z,96961.38
2019-03-10T00:34:33.310Z,96956.75
2019-03-10T00:37:40.424Z,96960.89
2019-03-10T00:41:43.002Z,96959.14
2019-03-10T00:45:59.839Z,96952.23
2019-03-10T00:50:04.088Z,96949.63
2019-03-10T00:53:12.172Z,96939.56
2019-03-10T00:56:19.011Z,96933.41
2019-03-10T00:59:25.975Z,96932.37
2019-03-10T01:02:32.708Z,96925.77
2019-03-10T01:05:39.715Z,96934.33
2019-03-10T01:08:46.456Z,96933.41
2019-03-10T01:11:53.463Z,96935.53
2019-03-10T01:15:00.385Z,96927.95
2019-03-10T01:18:07.419Z,96916.88
2019-03-10T01:21:15.256Z,96926.58
2019-03-10T01:24:22.124Z,96918.57
2019-03-10T01:27:28.869Z,96912.80
2019-03-10T01:30:53.803Z,96900.47
2019-03-10T01:34:45.865Z,96898.13
2019-03-10T01:37:52.727Z,96896.66
2019-03-10T01:40:59.468Z,96891.48
2019-03-10T01:44:06.350Z,96896.20
2019-03-10T01:47:13.166Z,96896.95
2019-03-10T01:50:21.139Z,96893.44
2019-03-10T01:53:31.526Z,96885.72
2019-03-10T01:56:38.386Z,96888.74
2019-03-10T01:59:45.148Z,96893.76
2019-03-10T02:02:52.018Z,96877.11
2019-03-10T02:05:58.763Z,96871.15
2019-03-10T02:09:07.483Z,96868.61
2019-03-10T02:12:15.145Z,96869.98
2019-03-10T02:15:22.315Z,96868.75
2019-03-10T02:18:29.230Z,96862.33
2019-03-10T02:21:36.183Z,96859.33
2019-03-10T02:24:42.947Z,96855.23
2019-03-10T02:27:49.847Z,96857.70
2019-03-10T02:30:56.771Z,96855.59
2019-03-10T02:34:03.994Z,96861.02
2019-03-10T02:37:10.855Z,96863.11
2019-03-10T02:40:17.980Z,96860.28
2019-03-10T02:43:24.726Z,96857.07
2019-03-10T02:46:32.726Z,96853.33
2019-03-10T02:49:39.602Z,96850.80
2019-03-10T02:52:46.544Z,96840.48
2019-03-10T02:55:53.856Z,96839.28
2019-03-10T02:59:00.673Z,96830.78
2019-03-10T03:02:07.460Z,96824.04
2019-03-10T03:05:14.326Z,96820.19
2019-03-10T03:08:21.165Z,96817.65
2019-03-10T03:11:28.106Z,96820.47
2019-03-10T03:14:38.862Z,96808.33
2019-03-10T03:17:45.755Z,96802.75
2019-03-10T03:20:52.511Z,96801.94
2019-03-10T03:23:59.445Z,96796.32
2019-03-10T03:27:06.275Z,96788.77
2019-03-10T03:30:15.058Z,96791.23
2019-03-10T03:33:21.917Z,96793.39
2019-03-10T03:36:37.784Z,96785.88
2019-03-10T03:39:51.023Z,96776.22
2019-03-10T03:42:57.921Z,96778.72
2019-03-10T03:46:04.668Z,96768.05
2019-03-10T03:49:11.624Z,96755.89
2019-03-10T03:52:18.444Z,96756.70
2019-03-10T03:55:25.240Z,96742.06
2019-03-10T03:58:34.799Z,96723.40
2019-03-10T04:01:45.721Z,96730.21
2019-03-10T04:04:52.456Z,96727.48
2019-03-10T04:07:59.237Z,96724.55
2019-03-10T04:11:06.063Z,96716.78
2019-03-10T04:14:13.096Z,96714.23
2019-03-10T04:17:19.994Z,96710.05
2019-03-10T04:20:29.165Z,96707.39
2019-03-10T04:23:36.002Z,96708.31
2019-03-10T04:26:42.781Z,96694.07
2019-03-10T04:29:49.648Z,96693.27
2019-03-10T04:32:56.628Z,96691.48
2019-03-10T04:36:03.450Z,96701.11
2019-03-10T04:39:10.241Z,96691.23
2019-03-10T04:42:19.908Z,96680.44
2019-03-10T04:45:26.814Z,96674.86
2019-03-10T04:48:34.147Z,96671.63
2019-03-10T04:51:41.104Z,96661.66
2019-03-10T04:55:15.900Z,96662.16
2019-03-10T04:58:22.761Z,96655.23
2019-03-10T05:01:31.628Z,96645.19
2019-03-10T05:04:38.426Z,96647.30
2019-03-10T05:07:45.169Z,96644.20
2019-03-10T05:10:52.110Z,96642.89
2019-03-10T05:13:58.995Z,96637.44
2019-03-10T05:17:05.959Z,96637.74
2019-03-10T05:20:13.123Z,96634.39
2019-03-10T05:23:32.116Z,96625.92
2019-03-10T05:26:38.994Z,96628.68
2019-03-10T05:29:45.869Z,96620.94
2019-03-10T05:32:52.615Z,96617.16
2019-03-10T05:35:59.567Z,96609.63
2019-03-10T05:39:08.580Z,96601.14
2019-03-10T05:42:15.708Z,96606.48
2019-03-10T05:45:23.623Z,96600.09
2019-03-10T05:48:32.209Z,96591.41
2019-03-10T05:51:39.360Z,96586.28
2019-03-10T05:54:46.150Z,96581.10
2019-03-10T05:57:52.890Z,96579.88
2019-03-10T06:00:59.674Z,96560.59
2019-03-10T06:04:09.172Z,96552.96
2019-03-10T06:07:16.969Z,96558.00
2019-03-10T06:10:23.852Z,96551.17
2019-03-10T06:13:31.911Z,96541.80
2019-03-10T06:16:38.674Z,96530.77
2019-03-10T06:19:45.448Z,96529.80
2019-03-10T06:22:52.340Z,96514.92
2019-03-10T06:25:59.220Z,96502.77
2019-03-10T06:29:06.053Z,96491.37
2019-03-10T06:32:12.852Z,96486.52
2019-03-10T06:35:19.602Z,96481.05
2019-03-10T06:38:27.763Z,96476.06
2019-03-10T06:41:36.159Z,96463.16
2019-03-10T06:44:42.969Z,96440.76
2019-03-10T06:47:49.836Z,96427.52
2019-03-10T06:50:56.629Z,96420.80
2019-03-10T06:54:03.446Z,96417.77
2019-03-10T06:57:10.223Z,96408.77
2019-03-10T07:00:17.727Z,96426.05
2019-03-10T07:03:24.877Z,96419.17
2019-03-10T07:06:35.633Z,96414.78
2019-03-10T07:09:42.729Z,96409.70
2019-03-10T07:12:49.515Z,96400.59
2019-03-10T07:15:57.412Z,96416.44
2019-03-10T07:19:04.254Z,96423.07
2019-03-10T07:22:11.277Z,96424.50
2019-03-10T07:25:18.088Z,96418.30
2019-03-10T07:28:32.129Z,96417.50
2019-03-10T07:31:56.628Z,96421.47
2019-03-10T07:35:22.295Z,96429.96
2019-03-10T07:38:47.861Z,96422.62
2019-03-10T07:42:14.142Z,96425.02
2019-03-10T07:45:35.717Z,96422.38
2019-03-10T07:49:01.473Z,96412.22
2019-03-10T07:52:20.888Z,96403.09
2019-03-10T07:55:40.265Z,96396.27
2019-03-10T07:58:55.189Z,96386.20
2019-03-10T08:02:19.981Z,96379.52
2019-03-10T08:05:44.750Z,96369.69
2019-03-10T08:09:12.015Z,96369.17
2019-03-10T08:12:43.305Z,96356.70
2019-03-10T08:15:57.692Z,96356.22
2019-03-10T08:19:26.367Z,96341.41
2019-03-10T08:22:51.712Z,96335.62
2019-03-10T08:26:20.398Z,96335.91
2019-03-10T08:30:28.807Z,96316.45
2019-03-10T08:34:16.043Z,96305.50
2019-03-10T08:37:40.206Z,96295.53
2019-03-10T08:41:01.273Z,96279.86
2019-03-10T08:44:39.984Z,96266.61
2019-03-10T08:48:05.771Z,96264.11
2019-03-10T08:51:22.525Z,96251.39
2019-03-10T08:54:33.882Z,96246.69
2019-03-10T08:58:02.846Z,96236.19
2019-03-10T09:01:37.577Z,96233.14
2019-03-10T09:05:03.279Z,96220.48
2019-03-10T09:08:53.925Z,96214.19
2019-03-10T09:12:57.423Z,96197.27
2019-03-10T09:16:23.773Z,96186.62
2019-03-10T09:19:48.928Z,96175.37
2019-03-10T09:23:30.919Z,96155.27
2019-03-10T09:26:52.369Z,96156.00
2019-03-10T09:30:24.066Z,96137.41
2019-03-10T09:33:49.065Z,96126.69
2019-03-10T09:37:18.358Z,96101.92
2019-03-10T09:40:37.060Z,96086.58
2019-03-10T09:44:03.713Z,96074.49
2019-03-10T09:47:27.369Z,96054.22
2019-03-10T09:50:46.762Z,96037.75
2019-03-10T09:54:12.594Z,96031.75
2019-03-10T09:57:41.400Z,96010.12
2019-03-10T10:01:06.286Z,95998.19
2019-03-10T10:04:41.051Z,95987.42
2019-03-10T10:08:05.842Z,95984.63
2019-03-10T10:11:23.673Z,95990.45
2019-03-10T10:14:43.291Z,95983.72
2019-03-10T10:18:00.889Z,95970.78
2019-03-10T10:21:20.201Z,95965.64
2019-03-10T10:24:44.632Z,95948.99
2019-03-10T10:28:16.307Z,95941.30
2019-03-10T10:31:35.374Z,95929.86
2019-03-10T10:35:00.363Z,95910.54
2019-03-10T10:38:20.921Z,95886.06
2019-03-10T10:41:53.738Z,95870.61
2019-03-10T10:45:11.006Z,95853.08
2019-03-10T10:48:36.732Z,95851.38
2019-03-10T10:52:04.426Z,95872.41
2019-03-10T10:55:18.000Z,95861.82
2019-03-10T10:58:46.717Z,95794.64
2019-03-10T11:01:59.208Z,95846.91
2019-03-10T11:05:24.506Z,95817.77
2019-03-10T11:09:10.035Z,95828.38
2019-03-10T11:12:38.930Z,95808.92
2019-03-10T11:16:04.730Z,95795.81
2019-03-10T11:19:27.738Z,95796.14
2019-03-10T11:22:58.315Z,95778.06
2019-03-10T11:26:27.313Z,95762.20
2019-03-10T11:29:53.242Z,95758.55
2019-03-10T11:33:22.676Z,95750.78
2019-03-10T11:36:57.600Z,95746.36
2019-03-10T11:40:17.553Z,95742.14
2019-03-10T11:43:46.519Z,95731.81
2019-03-10T11:47:18.106Z,95731.16
2019-03-10T11:50:32.226Z,95713.44
2019-03-10T11:53:51.867Z,95708.59
2019-03-10T11:57:17.487Z,95705.05
2019-03-10T12:00:38.702Z,95693.98
2019-03-10T12:03:57.414Z,95692.34
2019-03-10T12:07:32.333Z,95685.05
2019-03-10T12:10:39.280Z,95672.80
2019-03-10T12:13:50.720Z,95676.45
2019-03-10T12:17:00.248Z,95669.23
2019-03-10T12:20:08.581Z,95657.44
2019-03-10T12:23:15.593Z,95662.84
2019-03-10T12:26:22.371Z,95650.58
2019-03-10T12:29:29.335Z,95654.23
2019-03-10T12:32:37.664Z,95646.55
2019-03-10T12:35:46.985Z,95624.27
2019-03-10T12:38:55.884Z,95636.78
2019-03-10T12:42:02.494Z,95632.73
2019-03-10T12:45:10.701Z,95630.40
2019-03-10T12:48:17.812Z,95629.02
2019-03-10T12:51:26.244Z,95624.89
2019-03-10T12:54:33.214Z,95597.30
2019-03-10T12:57:39.998Z,95606.15
2019-03-10T13:00:49.009Z,95609.22
2019-03-10T13:03:59.206Z,95584.22
2019-03-10T13:07:09.478Z,95578.38
2019-03-10T13:10:21.016Z,95582.56
2019-03-10T13:13:29.554Z,95571.22
2019-03-10T13:16:38.047Z,95567.20
2019-03-10T13:19:52.633Z,95543.25
2019-03-10T13:23:03.273Z,95544.68
2019-03-10T13:26:10.309Z,95529.04
2019-03-10T13:29:17.095Z,95522.11
2019-03-10T13:32:25.451Z,95514.11
2019-03-10T13:35:32.294Z,95500.09
2019-03-10T13:38:41.947Z,95511.33
2019-03-10T13:41:48.811Z,95521.23
2019-03-10T13:44:58.743Z,95532.02
2019-03-10T13:48:06.786Z,95527.61
2019-03-10T13:51:13.729Z,95528.73
2019-03-10T13:54:20.637Z,95527.71
2019-03-10T13:57:27.604Z,95534.42
2019-03-10T14:00:34.476Z,95543.34
2019-03-10T14:03:41.799Z,95535.60
2019-03-10T14:06:51.426Z,95544.45
2019-03-10T14:10:00.038Z,95524.48
2019-03-10T14:13:06.922Z,95527.75
2019-03-10T14:16:13.787Z,95530.50
2019-03-10T14:19:20.608Z,95533.06
2019-03-10T14:22:28.665Z,95519.99
2019-03-10T14:25:35.538Z,95515.52
2019-03-10T14:28:42.360Z,95495.81
2019-03-10T14:31:49.344Z,95505.02
2019-03-10T14:34:58.417Z,95492.44
2019-03-10T14:38:05.369Z,95496.27
2019-03-10T14:41:12.428Z,95471.59
2019-03-10T14:44:19.250Z,95476.67
2019-03-10T14:47:26.172Z,95455.12
2019-03-10T14:50:36.127Z,95441.61
2019-03-10T14:53:43.046Z,95440.09
2019-03-10T14:56:49.962Z,95427.65
2019-03-10T14:59:56.913Z,95418.02
2019-03-10T15:03:10.713Z,95396.55
2019-03-10T15:06:17.714Z,95386.82
2019-03-10T15:09:24.726Z,95419.16
2019-03-10T15:12:31.544Z,95432.41
2019-03-10T15:15:38.519Z,95464.41
2019-03-10T15:18:45.452Z,95482.62
2019-03-10T15:21:52.400Z,95476.91
2019-03-10T15:25:00.616Z,95485.13
2019-03-10T15:28:08.498Z,95493.55
2019-03-10T15:31:18.078Z,95495.83
2019-03-10T15:34:26.590Z,95499.17
2019-03-10T15:37:33.668Z,95499.31
2019-03-10T15:40:40.663Z,95499.81
2019-03-10T15:43:48.798Z,95499.71
2019-03-10T15:46:58.651Z,95500.11
2019-03-10T15:50:08.522Z,95486.36
2019-03-10T15:53:34.104Z,95484.74
2019-03-10T15:56:46.665Z,95494.24
2019-03-10T15:59:59.981Z,95493.02
2019-03-10T16:03:08.771Z,95488.42
2019-03-10T16:06:22.212Z,95505.18
2019-03-10T16:09:31.593Z,95517.72
2019-03-10T16:12:37.691Z,95534.42
2019-03-10T16:15:44.574Z,95541.57
2019-03-10T16:18:54.363Z,95545.02
2019-03-10T16:22:01.498Z,95547.49
2019-03-10T16:25:11.737Z,95538.34
2019-03-10T16:28:18.673Z,95540.91
2019-03-10T16:31:25.569Z,95534.17
2019-03-10T16:34:32.898Z,95572.88
2019-03-10T16:37:41.874Z,95574.48
2019-03-10T16:40:50.666Z,95597.00
2019-03-10T16:44:01.157Z,95596.48
2019-03-10T16:47:16.700Z,95592.28
2019-03-10T16:50:29.065Z,95600.56
2019-03-10T16:53:36.291Z,95604.81
2019-03-10T16:56:43.478Z,95599.45
2019-03-10T16:59:50.457Z,95604.75
2019-03-10T17:02:57.620Z,95618.60
2019-03-10T17:06:04.550Z,95620.05
2019-03-10T17:09:21.308Z,95616.09
2019-03-10T17:12:28.125Z,95613.48
2019-03-10T17:15:34.866Z,95622.33
2019-03-10T17:18:41.881Z,95634.53
2019-03-10T17:21:48.767Z,95640.03
2019-03-10T17:24:55.646Z,95623.70
2019-03-10T17:28:03.969Z,95641.91
2019-03-10T17:31:10.907Z,95626.63
2019-03-10T17:34:17.760Z,95633.07
2019-03-10T17:37:24.717Z,95651.12
2019-03-10T17:40:31.570Z,95665.35
2019-03-10T17:43:40.040Z,95670.82
2019-03-10T17:46:46.858Z,95669.36
2019-03-10T17:49:53.677Z,95669.17
2019-03-10T17:53:01.237Z,95688.96
2019-03-10T17:56:08.189Z,95708.02
2019-03-10T17:59:16.003Z,95736.53
2019-03-10T18:02:25.012Z,95738.00
2019-03-10T18:05:34.636Z,95745.61
2019-03-10T18:08:43.156Z,95754.52
2019-03-10T18:11:50.029Z,95791.78
2019-03-10T18:15:08.240Z,95788.95
2019-03-10T18:18:08.683Z,95800.87
2019-03-10T18:21:15.594Z,95790.59
2019-03-10T18:24:22.478Z,95794.48
2019-03-10T18:27:29.418Z,95801.78
2019-03-10T18:30:40.941Z,95810.16
2019-03-10T18:33:47.894Z,95809.36
2019-03-10T18:36:55.024Z,95820.37
2019-03-10T18:40:01.966Z,95819.69
2019-03-10T18:43:10.354Z,95830.08
2019-03-10T18:46:17.315Z,95813.38
2019-03-10T18:49:24.138Z,95827.21
2019-03-10T18:52:38.655Z,95818.59
2019-03-10T18:55:45.510Z,95799.33
2019-03-10T18:58:52.438Z,95816.81
2019-03-10T19:01:59.427Z,95827.98
2019-03-10T19:05:08.598Z,95841.72
2019-03-10T19:08:15.585Z,95826.93
2019-03-10T19:11:22.513Z,95810.50
2019-03-10T19:14:30.512Z,95820.37
2019-03-10T19:17:38.629Z,95833.41
2019-03-10T19:20:45.453Z,95830.39
2019-03-10T19:23:52.391Z,95833.09
2019-03-10T19:26:59.255Z,95840.23
2019-03-10T19:30:38.787Z,95843.14
2019-03-10T19:33:47.511Z,95868.56
2019-03-10T19:36:57.690Z,95880.73
2019-03-10T19:40:06.701Z,95894.82
2019-03-10T19:43:13.739Z,95899.22
2019-03-10T19:46:20.683Z,95888.66
2019-03-10T19:49:30.479Z,95888.69
2019-03-10T19:52:37.380Z,95892.44
2019-03-10T19:55:44.244Z,95898.28
2019-03-10T19:58:54.255Z,95916.42
2019-03-10T20:02:01.102Z,95915.05
2019-03-10T20:05:08.566Z,95932.41
2019-03-10T20:08:15.522Z,95942.23
2019-03-10T20:11:22.543Z,95929.53
2019-03-10T20:14:29.672Z,95976.08
2019-03-10T20:17:36.737Z,95992.52
2019-03-10T20:20:43.783Z,96054.55
2019-03-10T20:23:50.674Z,96032.44
2019-03-10T20:26:59.364Z,96089.64
2019-03-10T20:30:07.556Z,96126.94
2019-03-10T20:33:14.541Z,96135.50
2019-03-10T20:36:21.706Z,96148.38
2019-03-10T20:39:28.734Z,96175.47
2019-03-10T20:42:35.542Z,96213.42
2019-03-10T20:45:42.342Z,96247.02
2019-03-10T20:48:49.351Z,96267.88
2019-03-10T20:51:56.336Z,96302.29
2019-03-10T20:55:03.090Z,96340.61
2019-03-10T20:58:10.805Z,96373.09
2019-03-10T21:01:17.767Z,96382.62
2019-03-10T21:04:24.642Z,96404.23
2019-03-10T21:07:32.821Z,96427.70
2019-03-10T21:10:39.708Z,96427.81
2019-03-10T21:13:46.710Z,96425.25
2019-03-10T21:16:53.746Z,96453.41
2019-03-10T21:20:00.633Z,96465.09
2019-03-10T21:23:07.702Z,96469.47
2019-03-10T21:26:14.466Z,96467.80
2019-03-10T21:29:21.253Z,96490.84
2019-03-10T21:32:28.982Z,96499.56
2019-03-10T21:35:35.774Z,96524.38
2019-03-10T21:38:43.016Z,96523.64
2019-03-10T21:41:50.170Z,96527.31
2019-03-10T21:44:59.865Z,96532.96
2019-03-10T21:48:06.890Z,96549.83
2019-03-10T21:51:13.719Z,96566.13
2019-03-10T21:54:20.571Z,96585.35
2019-03-10T21:57:27.329Z,96585.71
2019-03-10T22:00:34.203Z,96588.54
2019-03-10T22:03:41.151Z,96590.94
2019-03-10T22:06:48.125Z,96596.13
2019-03-10T22:09:58.171Z,96596.61
2019-03-10T22:13:05.227Z,96607.97
2019-03-10T22:16:12.066Z,96606.25
2019-03-10T22:19:22.899Z,96607.06
2019-03-10T22:22:27.675Z,96628.74
2019-03-10T22:25:34.538Z,96627.02
2019-03-10T22:28:44.427Z,96633.38
2019-03-10T22:31:51.514Z,96644.52
2019-03-10T22:34:59.515Z,96645.00
2019-03-10T22:38:06.557Z,96662.67
2019-03-10T22:41:13.790Z,96667.73
2019-03-10T22:44:20.641Z,96664.08
2019-03-10T22:47:27.563Z,96655.80
2019-03-10T22:50:34.440Z,96643.31
2019-03-10T22:53:41.194Z,96661.03
2019-03-10T22:56:48.010Z,96656.44
2019-03-10T22:59:55.184Z,96678.66
2019-03-10T23:03:02.038Z,96705.64
2019-03-10T23:06:08.995Z,96709.13
2019-03-10T23:09:15.953Z,96721.68
2019-03-10T23:12:22.702Z,96746.28
2019-03-10T23:15:29.558Z,96758.14
2019-03-10T23:18:36.491Z,96756.84
2019-03-10T23:21:43.363Z,96748.42
2019-03-10T23:24:50.157Z,96757.54
2019-03-10T23:28:00.208Z,96762.41
2019-03-10T23:31:07.043Z,96767.88
2019-03-10T23:34:13.996Z,96773.30
2019-03-10T23:37:20.807Z,96783.89
2019-03-10T23:40:27.631Z,96786.84
2019-03-10T23:43:35.647Z,96786.76
2019-03-10T23:46:42.530Z,96787.30
2019-03-10T23:49:49.537Z,96791.64
2019-03-10T23:53:01.044Z,96792.61
2019-03-10T23:56:07.880Z,96797.63
2019-03-10T23:59:14.805Z,96806.25
